Saturday, August 23, 2014, 7:24 AM EDT

KOKV, Winchester Regional

Location: Winchester, VA, United States Lat: 39.15
Local Time: 7:24 AM EDT (11:24 GMT) Lon: -78.15
Time Zone: US/Eastern Elev: 728 ft

Show me the last for .
Show Decoded

2014-08-23 06:55 METAR KOKV 231055Z AUTO 13006KT 10SM OVC008 21/20 A3000 RMK AO2 =
2014-08-23 06:35 METAR KOKV 231035Z AUTO 11005KT 10SM OVC008 21/20 A3000 RMK AO2 =
2014-08-23 06:15 METAR KOKV 231015Z AUTO 11004KT 10SM OVC010 21/20 A2999 RMK AO2 =
2014-08-23 05:55 METAR KOKV 230955Z AUTO 11004KT 10SM OVC012 22/20 A2999 RMK AO2 =
2014-08-23 05:35 METAR KOKV 230935Z AUTO 13005KT 10SM OVC010 22/20 A2998 RMK AO2 =
2014-08-23 05:15 METAR KOKV 230915Z AUTO 12006KT 10SM BKN008 OVC012 22/20 A2998 RMK AO2 =
2014-08-23 04:55 METAR KOKV 230855Z AUTO 12004KT 7SM BKN008 OVC013 22/21 A2998 RMK AO2 =
2014-08-23 04:35 METAR KOKV 230835Z AUTO 12005KT 7SM BKN013 OVC019 22/21 A2998 RMK AO2 =
2014-08-23 04:15 METAR KOKV 230815Z AUTO 12003KT 7SM SCT013 OVC019 22/21 A2998 RMK AO2 =
2014-08-23 03:55 METAR KOKV 230755Z AUTO 09003KT 7SM BKN010 OVC017 22/21 A2998 RMK AO2 =
2014-08-23 03:35 METAR KOKV 230735Z AUTO 00000KT 7SM BKN010 OVC015 22/21 A2999 RMK AO2 =
2014-08-23 03:15 METAR KOKV 230715Z AUTO 12004KT 7SM OVC015 22/21 A2999 RMK AO2 =
2014-08-23 02:55 METAR KOKV 230655Z AUTO 10003KT 7SM OVC015 22/21 A2999 RMK AO2 =
2014-08-23 02:35 METAR KOKV 230635Z AUTO 10004KT 7SM OVC013 22/21 A2999 RMK AO2 =
2014-08-23 02:15 METAR KOKV 230615Z AUTO 12003KT 7SM BKN013 OVC075 22/21 A2999 RMK AO2 =
2014-08-23 01:55 METAR KOKV 230555Z AUTO 12003KT 7SM SCT015 SCT045 OVC075 22/20 A2999 RMK AO2 =
2014-08-23 01:35 METAR KOKV 230535Z AUTO 10003KT 7SM SCT017 BKN035 OVC045 22/20 A2999 RMK AO2 =
2014-08-23 01:15 METAR KOKV 230515Z AUTO 11003KT 7SM BKN019 OVC027 22/20 A3000 RMK AO2 =
2014-08-23 00:55 METAR KOKV 230455Z AUTO 12005KT 7SM OVC019 22/21 A3000 RMK AO2 =
2014-08-23 00:35 METAR KOKV 230435Z AUTO 11003KT 7SM BKN019 BKN070 22/21 A3000 RMK AO2 =
2014-08-23 00:15 METAR KOKV 230415Z AUTO 09003KT 5SM BR BKN070 22/21 A3000 RMK AO2 =
2014-08-22 23:55 METAR KOKV 230355Z AUTO 11004KT 7SM BKN050 OVC070 22/21 A3000 RMK AO2 =
2014-08-22 23:35 METAR KOKV 230335Z AUTO 00000KT 7SM BKN050 OVC065 22/21 A3000 RMK AO2 =
2014-08-22 23:15 METAR KOKV 230315Z AUTO 00000KT 7SM SCT022 SCT045 OVC065 22/21 A3001 RMK AO2 =
2014-08-22 22:55 METAR KOKV 230255Z AUTO 00000KT 10SM SCT022 BKN045 BKN065 22/21 A3000 RMK AO2 =
2014-08-22 22:35 METAR KOKV 230235Z AUTO 00000KT 10SM SCT047 BKN085 22/21 A3000 RMK AO2 =
2014-08-22 22:15 METAR KOKV 230215Z AUTO 00000KT 10SM OVC085 22/21 A3000 RMK AO2 =
2014-08-22 21:55 METAR KOKV 230155Z AUTO 00000KT 10SM SCT070 OVC085 22/21 A3000 RMK AO2 =
2014-08-22 21:35 METAR KOKV 230135Z AUTO 00000KT 10SM SCT070 BKN085 23/21 A3000 RMK AO2 =
2014-08-22 21:15 METAR KOKV 230115Z AUTO 00000KT 10SM SCT085 22/21 A2999 RMK AO2 =
2014-08-22 20:55 METAR KOKV 230055Z AUTO 00000KT 10SM SCT060 23/21 A2999 RMK AO2 =
2014-08-22 20:35 METAR KOKV 230035Z AUTO 00000KT 10SM CLR 23/21 A2998 RMK AO2 =
2014-08-22 20:15 METAR KOKV 230015Z AUTO 00000KT 10SM CLR 23/21 A2998 RMK AO2 =
2014-08-22 19:55 METAR KOKV 222355Z AUTO 00000KT 10SM CLR 23/20 A2997 RMK AO2 =
2014-08-22 19:15 METAR KOKV 222315Z AUTO 12003KT 10SM SCT100 25/20 A2996 RMK AO2 =
2014-08-22 18:55 METAR KOKV 222255Z AUTO 00000KT 10SM SCT100 26/19 A2997 RMK AO2 =
2014-08-22 18:15 METAR KOKV 222215Z AUTO 16004KT 10SM OVC110 27/20 A2997 RMK AO2 =
2014-08-22 17:55 METAR KOKV 222155Z AUTO 15003KT 10SM OVC100 27/20 A2997 RMK AO2 =
2014-08-22 17:35 METAR KOKV 222135Z AUTO 16003KT 10SM SCT065 BKN110 27/20 A2998 RMK AO2 =
2014-08-22 17:15 METAR KOKV 222115Z AUTO 00000KT 10SM SCT065 27/20 A2998 RMK AO2 =
2014-08-22 16:55 METAR KOKV 222055Z AUTO 18003KT 10SM CLR 27/20 A2998 RMK AO2 =
2014-08-22 16:35 METAR KOKV 222035Z AUTO 17003KT 10SM SCT120 26/20 A2997 RMK AO2 =
2014-08-22 16:15 METAR KOKV 222015Z AUTO 15003KT 10SM SCT120 26/20 A2998 RMK AO2 =
2014-08-22 15:55 METAR KOKV 221955Z AUTO 00000KT 10SM SCT021 SCT029 SCT120 26/20 A2999 RMK AO2 =
2014-08-22 15:35 METAR KOKV 221935Z AUTO 15004KT 10SM SCT021 SCT120 26/20 A2999 RMK AO2 =
2014-08-22 15:15 METAR KOKV 221915Z AUTO 00000KT 10SM SCT065 25/20 A3000 RMK AO2 =
2014-08-22 14:55 METAR KOKV 221855Z AUTO 00000KT 10SM SCT019 BKN065 26/21 A3000 RMK AO2 =
2014-08-22 14:35 METAR KOKV 221835Z AUTO 15003KT 10SM SCT019 BKN045 OVC065 25/21 A3001 RMK AO2 =
2014-08-22 14:15 METAR KOKV 221815Z AUTO 16004KT 10SM SCT017 BKN029 OVC065 25/21 A3002 RMK AO2 =
2014-08-22 13:55 METAR KOKV 221755Z AUTO 00000KT 7SM BKN017 BKN022 OVC060 25/20 A3002 RMK AO2 =
2014-08-22 13:35 METAR KOKV 221735Z AUTO 24003KT 10SM SCT015 SCT041 OVC060 25/21 A3002 RMK AO2 =
2014-08-22 13:15 METAR KOKV 221715Z AUTO 24004KT 10SM BKN041 OVC060 23/21 A3003 RMK AO2 =
2014-08-22 12:55 METAR KOKV 221655Z AUTO 22004KT 10SM SCT006 SCT015 OVC041 23/21 A3003 RMK AO2
                 P0001 =
2014-08-22 12:35 METAR KOKV 221635Z AUTO 23004KT 7SM SCT006 BKN039 OVC047 22/21 A3003 RMK AO2
                 P0001 =
2014-08-22 12:15 METAR KOKV 221615Z AUTO 23003KT 5SM -RA BKN044 OVC050 22/21 A3003 RMK AO2 P0001
                 =
2014-08-22 11:55 METAR KOKV 221555Z AUTO 23004KT 2 1/2SM RA OVC048 22/21 A3004 RMK AO2 P0013 =
2014-08-22 11:35 METAR KOKV 221535Z AUTO 22003KT 3SM +RA SCT041 OVC048 22/20 A3004 RMK AO2 P0010
                 =
2014-08-22 11:15 METAR KOKV 221515Z AUTO 00000KT 2SM +RA BKN026 OVC041 21/20 A3004 RMK AO2 P0008
                 =
2014-08-22 10:55 METAR KOKV 221455Z AUTO 28004KT 3SM RA BKN028 OVC042 22/20 A3004 RMK AO2 P0001 =
2014-08-22 10:35 METAR KOKV 221435Z AUTO 00000KT 10SM BKN036 OVC043 22/20 A3003 RMK AO2 =
2014-08-22 10:15 METAR KOKV 221415Z AUTO 00000KT 10SM OVC034 22/20 A3003 RMK AO2 =
2014-08-22 09:55 METAR KOKV 221355Z AUTO 00000KT 10SM -DZ OVC030 22/20 A3003 RMK AO2 =
2014-08-22 09:35 METAR KOKV 221335Z AUTO 22003KT 10SM SCT030 SCT060 BKN095 22/20 A3003 RMK AO2 =
2014-08-22 09:15 METAR KOKV 221315Z AUTO 00000KT 10SM CLR 22/20 A3002 RMK AO2 =
2014-08-22 08:55 METAR KOKV 221255Z AUTO 00000KT 10SM CLR 22/20 A3002 RMK AO2 =
2014-08-22 08:35 METAR KOKV 221235Z AUTO 00000KT 10SM CLR 21/20 A3002 RMK AO2 =
2014-08-22 08:15 METAR KOKV 221215Z AUTO 00000KT 10SM CLR 21/20 A3002 RMK AO2 =
2014-08-22 07:55 METAR KOKV 221155Z AUTO 00000KT 7SM SCT030 21/20 A3002 RMK AO2 =
2014-08-22 07:35 METAR KOKV 221135Z AUTO 00000KT 10SM SCT030 21/20 A3002 RMK AO2 =

Support USWX by starting your Amazon purchase here.